createdAt,value
2023-02-24T00:03:17.300Z,3.80
2023-02-24T00:08:19.058Z,3.70
2023-02-24T00:13:22.338Z,3.17
2023-02-24T00:18:25.394Z,3.20
2023-02-24T00:23:27.081Z,4.60
2023-02-24T00:28:29.047Z,3.00
2023-02-24T00:33:32.412Z,3.00
2023-02-24T00:38:35.829Z,4.40
2023-02-24T00:43:38.928Z,3.50
2023-02-24T00:48:42.124Z,3.67
2023-02-24T00:53:44.151Z,3.47
2023-02-24T00:58:45.878Z,3.93
2023-02-24T01:03:49.381Z,4.03
2023-02-24T01:08:52.593Z,4.47
2023-02-24T01:13:54.376Z,4.60
2023-02-24T01:18:57.423Z,3.13
2023-02-24T01:23:59.094Z,3.90
2023-02-24T01:29:00.831Z,3.07
2023-02-24T01:34:06.030Z,4.30
2023-02-24T01:39:10.870Z,5.00
2023-02-24T01:44:45.891Z,3.30
2023-02-24T01:49:49.921Z,3.87
2023-02-24T01:54:55.483Z,3.40
2023-02-24T02:00:02.260Z,3.43
2023-02-24T02:05:06.391Z,3.92
2023-02-24T02:10:09.036Z,3.73
2023-02-24T02:15:13.005Z,3.37
2023-02-24T02:20:30.199Z,2.73
2023-02-24T02:25:38.913Z,2.93
2023-02-24T02:30:59.914Z,2.83
2023-02-24T02:36:07.060Z,2.57
2023-02-24T02:41:11.425Z,3.00
2023-02-24T02:46:17.567Z,2.50
2023-02-24T02:51:22.546Z,3.07
2023-02-24T02:56:25.622Z,2.80
2023-02-24T03:01:32.104Z,2.30
2023-02-24T03:06:37.194Z,2.30
2023-02-24T03:11:39.100Z,2.77
2023-02-24T03:16:41.613Z,2.70
2023-02-24T03:21:45.757Z,1.80
2023-02-24T03:26:50.373Z,2.17
2023-02-24T03:31:55.490Z,1.83
2023-02-24T03:36:59.086Z,1.97
2023-02-24T03:42:02.923Z,2.30
2023-02-24T03:47:09.541Z,1.75
2023-02-24T03:52:21.465Z,1.50
2023-02-24T03:57:27.093Z,4.40
2023-02-24T04:02:31.180Z,2.30
2023-02-24T04:07:40.377Z,1.80
2023-02-24T04:12:47.004Z,1.90
2023-02-24T04:17:50.833Z,1.90
2023-02-24T04:22:57.954Z,2.37
2023-02-24T04:28:00.687Z,2.20
2023-02-24T04:33:02.570Z,1.93
2023-02-24T04:38:05.697Z,2.03
2023-02-24T04:43:08.274Z,1.70
2023-02-24T04:48:13.006Z,1.97
2023-02-24T04:53:16.633Z,2.57
2023-02-24T04:58:19.268Z,5.55
2023-02-24T05:03:22.276Z,2.13
2023-02-24T05:08:25.521Z,2.40
2023-02-24T05:13:28.132Z,1.97
2023-02-24T05:18:36.997Z,2.20
2023-02-24T05:23:44.127Z,4.40
2023-02-24T05:28:49.054Z,2.67
2023-02-24T05:33:54.585Z,4.27
2023-02-24T05:39:07.798Z,7.60
2023-02-24T05:44:11.336Z,2.40
2023-02-24T05:49:14.317Z,2.13
2023-02-24T05:54:17.482Z,1.60
2023-02-24T05:59:21.427Z,1.80
2023-02-24T06:04:45.816Z,3.30
2023-02-24T06:09:50.352Z,1.80
2023-02-24T06:14:52.974Z,2.90
2023-02-24T06:19:54.698Z,2.50
2023-02-24T06:24:57.702Z,2.07
2023-02-24T06:29:59.338Z,1.63
2023-02-24T06:35:01.853Z,1.53
2023-02-24T06:40:15.620Z,1.40
2023-02-24T06:45:17.454Z,1.67
2023-02-24T06:50:23.286Z,2.43
2023-02-24T06:55:26.429Z,1.60
2023-02-24T07:00:42.578Z,1.97
2023-02-24T07:05:50.154Z,2.27
2023-02-24T07:10:53.940Z,2.13
2023-02-24T07:15:55.733Z,1.60
2023-02-24T07:21:05.021Z,2.07
2023-02-24T07:26:11.908Z,1.63
2023-02-24T07:31:15.174Z,1.63
2023-02-24T07:36:23.019Z,2.40
2023-02-24T07:41:26.400Z,1.70
2023-02-24T07:46:28.289Z,1.73
2023-02-24T07:51:30.062Z,1.47
2023-02-24T07:56:33.055Z,1.77
2023-02-24T08:01:39.110Z,1.50
2023-02-24T08:06:46.225Z,1.13
2023-02-24T08:11:54.358Z,2.50
2023-02-24T08:17:02.121Z,1.37
2023-02-24T08:22:19.230Z,1.30
2023-02-24T08:27:24.013Z,1.03
2023-02-24T08:32:26.832Z,1.53
2023-02-24T08:37:33.413Z,2.17
2023-02-24T08:42:36.494Z,1.50
2023-02-24T08:47:38.156Z,1.70
2023-02-24T08:52:40.404Z,1.60
2023-02-24T08:57:53.492Z,1.80
2023-02-24T09:02:56.143Z,2.07
2023-02-24T09:07:57.784Z,1.70
2023-02-24T09:13:01.161Z,2.10
2023-02-24T09:18:07.472Z,2.30
2023-02-24T09:23:19.887Z,1.98
2023-02-24T09:28:24.877Z,1.57
2023-02-24T09:33:27.889Z,1.90
2023-02-24T09:38:48.344Z,1.30
2023-02-24T09:43:59.834Z,2.10
2023-02-24T09:49:05.295Z,1.97
2023-02-24T09:54:13.486Z,2.33
2023-02-24T09:59:26.055Z,2.17
2023-02-24T10:04:53.855Z,1.83
2023-02-24T10:10:11.092Z,2.53
2023-02-24T10:15:20.586Z,2.80
2023-02-24T10:20:30.975Z,2.57
2023-02-24T10:25:41.667Z,2.70
2023-02-24T10:30:48.622Z,2.70
2023-02-24T10:35:50.414Z,3.30
2023-02-24T10:40:56.676Z,2.90
2023-02-24T10:46:16.921Z,2.13
2023-02-24T10:51:21.501Z,2.30
2023-02-24T10:56:26.774Z,2.70
2023-02-24T11:01:49.430Z,2.10
2023-02-24T11:06:55.600Z,2.70
2023-02-24T11:12:17.607Z,5.00
2023-02-24T11:17:26.720Z,2.97
2023-02-24T11:22:32.554Z,2.20
2023-02-24T11:27:34.235Z,2.60
2023-02-24T11:32:45.464Z,2.60
2023-02-24T11:37:53.070Z,3.00
2023-02-24T11:42:56.914Z,2.87
2023-02-24T11:48:02.988Z,3.00
2023-02-24T11:53:10.001Z,3.17
2023-02-24T11:58:14.627Z,2.77
2023-02-24T12:03:22.822Z,2.70
2023-02-24T12:08:26.882Z,3.47
2023-02-24T12:13:32.274Z,3.67
2023-02-24T12:18:36.578Z,3.03
2023-02-24T12:23:39.633Z,2.97
2023-02-24T12:28:56.830Z,2.50
2023-02-24T12:34:08.516Z,3.20
2023-02-24T12:39:12.764Z,3.13
2023-02-24T12:44:22.756Z,2.97
2023-02-24T12:49:36.192Z,4.83
2023-02-24T12:54:40.260Z,3.70
2023-02-24T12:59:42.030Z,3.03
2023-02-24T13:04:48.899Z,2.60
2023-02-24T13:09:52.270Z,3.13
2023-02-24T13:14:54.018Z,2.90
2023-02-24T13:19:57.019Z,2.80
2023-02-24T13:25:12.195Z,2.40
2023-02-24T13:30:36.923Z,2.83
2023-02-24T13:35:40.067Z,4.93
2023-02-24T13:40:41.763Z,3.17
2023-02-24T13:45:45.116Z,3.40
2023-02-24T13:51:17.462Z,3.10
2023-02-24T13:56:28.367Z,3.45
2023-02-24T14:01:30.059Z,3.73
2023-02-24T14:06:33.078Z,4.07
2023-02-24T14:11:35.903Z,4.27
2023-02-24T14:16:39.672Z,4.73
2023-02-24T14:21:48.896Z,5.50
2023-02-24T14:26:51.600Z,6.00
2023-02-24T14:31:54.419Z,6.30
2023-02-24T14:36:58.216Z,6.30
2023-02-24T14:42:12.812Z,6.10
2023-02-24T14:47:15.052Z,5.45
2023-02-24T14:52:20.221Z,12.97
2023-02-24T14:57:22.731Z,9.57
2023-02-24T15:02:25.818Z,6.00
2023-02-24T15:07:30.162Z,7.20
2023-02-24T15:12:33.008Z,7.10
2023-02-24T15:17:38.401Z,6.70
2023-02-24T15:22:48.062Z,6.90
2023-02-24T15:27:50.689Z,6.60
2023-02-24T15:32:59.785Z,6.73
2023-02-24T15:38:03.107Z,9.00
2023-02-24T15:43:08.726Z,7.20
2023-02-24T15:48:19.632Z,8.93
2023-02-24T15:53:22.629Z,7.57
2023-02-24T15:58:25.410Z,7.30
2023-02-24T16:03:27.077Z,9.43
2023-02-24T16:08:30.067Z,7.90
2023-02-24T16:13:31.781Z,8.43
2023-02-24T16:18:33.509Z,10.63
2023-02-24T16:23:40.637Z,8.87
2023-02-24T16:28:42.592Z,8.50
2023-02-24T16:33:54.088Z,8.70
2023-02-24T16:38:57.826Z,8.60
2023-02-24T16:43:59.733Z,8.27
2023-02-24T16:49:01.430Z,9.83
2023-02-24T16:54:04.653Z,9.10
2023-02-24T16:59:06.310Z,8.70
2023-02-24T17:04:09.929Z,8.73
2023-02-24T17:09:15.529Z,10.60
2023-02-24T17:14:18.268Z,11.37
2023-02-24T17:19:20.311Z,13.40
2023-02-24T17:24:24.890Z,11.60
2023-02-24T17:29:26.713Z,10.60
2023-02-24T17:34:28.522Z,11.63
2023-02-24T17:39:31.621Z,12.93
2023-02-24T17:44:33.586Z,14.57
2023-02-24T17:49:35.355Z,11.90
2023-02-24T17:54:39.005Z,13.43
2023-02-24T17:59:42.315Z,12.10
2023-02-24T18:04:44.026Z,11.57
2023-02-24T18:09:47.046Z,11.80
2023-02-24T18:14:59.052Z,18.07
2023-02-24T18:20:08.702Z,12.80
2023-02-24T18:25:11.813Z,10.60
2023-02-24T18:30:17.666Z,9.37
2023-02-24T18:35:21.829Z,9.10
2023-02-24T18:40:24.939Z,9.70
2023-02-24T18:45:26.678Z,10.33
2023-02-24T18:50:28.453Z,7.67
2023-02-24T18:55:34.265Z,7.80
2023-02-24T19:00:35.942Z,7.10
2023-02-24T19:05:39.005Z,6.07
2023-02-24T19:10:43.609Z,5.03
2023-02-24T19:15:45.355Z,4.87
2023-02-24T19:20:47.133Z,5.07
2023-02-24T19:25:50.224Z,3.77
2023-02-24T19:30:54.016Z,4.20
2023-02-24T19:35:57.983Z,3.83
2023-02-24T19:41:01.117Z,3.10
2023-02-24T19:46:06.204Z,3.10
2023-02-24T19:51:08.904Z,2.87
2023-02-24T19:56:12.008Z,2.67
2023-02-24T20:01:13.838Z,3.37
2023-02-24T20:06:18.913Z,3.83
2023-02-24T20:11:22.456Z,3.40
2023-02-24T20:16:25.742Z,4.20
2023-02-24T20:21:27.984Z,3.60
2023-02-24T20:26:31.126Z,4.93
2023-02-24T20:31:32.851Z,4.20
2023-02-24T20:36:34.753Z,3.60
2023-02-24T20:41:38.014Z,4.00
2023-02-24T20:46:39.709Z,5.40
2023-02-24T20:51:41.608Z,4.95
2023-02-24T20:56:44.874Z,4.33
2023-02-24T21:01:47.792Z,4.50
2023-02-24T21:06:51.796Z,3.90
2023-02-24T21:11:54.873Z,4.72
2023-02-24T21:16:56.562Z,3.47
2023-02-24T21:21:58.208Z,2.97
2023-02-24T21:27:01.262Z,3.00
2023-02-24T21:32:03.302Z,3.67
2023-02-24T21:37:05.900Z,3.97
2023-02-24T21:42:09.896Z,3.73
2023-02-24T21:47:11.712Z,4.10
2023-02-24T21:52:13.482Z,4.07
2023-02-24T21:57:17.135Z,3.33
2023-02-24T22:02:18.845Z,3.87
2023-02-24T22:07:20.450Z,4.40
2023-02-24T22:12:23.442Z,5.70
2023-02-24T22:17:25.162Z,5.17
2023-02-24T22:22:26.890Z,4.97
2023-02-24T22:27:30.046Z,5.00
2023-02-24T22:32:32.292Z,4.17
2023-02-24T22:37:33.996Z,4.80
2023-02-24T22:42:37.055Z,4.97
2023-02-24T22:47:38.730Z,5.40
2023-02-24T22:52:40.681Z,5.53
2023-02-24T22:57:43.764Z,5.00
2023-02-24T23:02:45.621Z,4.90
2023-02-24T23:07:48.479Z,4.73
2023-02-24T23:12:53.040Z,3.90
2023-02-24T23:17:55.172Z,4.20
2023-02-24T23:22:56.947Z,4.37
2023-02-24T23:28:00.086Z,4.53
2023-02-24T23:33:03.019Z,4.40
2023-02-24T23:38:04.748Z,5.00
2023-02-24T23:43:08.095Z,4.57
2023-02-24T23:48:10.432Z,4.60
2023-02-24T23:53:12.127Z,4.17
2023-02-24T23:58:16.460Z,4.20
